Time;durP1;ratioP1;P1;durP2;ratioP2;P2;SDS_P1;SDS_P2;PMS_P1;PMS_P2;Temp;Humidity;BMP_temperature;BMP_pressure;BME280_temperature;BME280_humidity;BME280_pressure;Samples;Min_cycle;Max_cycle;Signal;HPM_P1;HPM_P2
2021/05/25 00:00:15;;;;;;;1.65;0.35;;;9.20;99.90;;;;;;5046036;28;20044;-72
2021/05/25 00:02:42;;;;;;;2.05;0.38;;;9.20;99.90;;;;;;5023747;28;20375;-74
2021/05/25 00:05:14;;;;;;;2.40;0.50;;;9.20;99.20;;;;;;5040601;28;20082;-76
2021/05/25 00:07:39;;;;;;;0.95;0.40;;;9.20;98.20;;;;;;5047161;28;20032;-72
2021/05/25 00:10:06;;;;;;;2.83;0.50;;;9.20;97.40;;;;;;5050438;28;20033;-79
2021/05/25 00:12:33;;;;;;;1.25;0.32;;;9.20;97.00;;;;;;5044857;28;20048;-72
2021/05/25 00:14:58;;;;;;;1.77;0.50;;;9.20;97.00;;;;;;5035494;28;20056;-70
2021/05/25 00:17:24;;;;;;;1.13;0.50;;;9.20;96.30;;;;;;5050798;28;20193;-73
2021/05/25 00:19:50;;;;;;;1.35;0.38;;;9.20;95.90;;;;;;5048476;28;20382;-71
2021/05/25 00:22:15;;;;;;;1.55;0.68;;;9.10;96.10;;;;;;5050021;28;20383;-71
2021/05/25 00:24:42;;;;;;;2.45;0.55;;;9.20;95.40;;;;;;5038876;28;20101;-71
2021/05/25 00:27:07;;;;;;;6.50;0.40;;;9.20;95.20;;;;;;5045062;28;20033;-72
2021/05/25 00:29:33;;;;;;;3.92;0.70;;;9.10;95.70;;;;;;5039280;28;20037;-71
2021/05/25 00:31:59;;;;;;;2.28;0.40;;;9.10;96.00;;;;;;5033331;28;20038;-72
2021/05/25 00:34:24;;;;;;;1.75;0.70;;;9.00;96.90;;;;;;5038715;28;20090;-72
2021/05/25 00:36:50;;;;;;;2.22;0.50;;;9.00;97.70;;;;;;5041064;28;20072;-72
2021/05/25 00:39:16;;;;;;;1.75;0.60;;;8.90;98.30;;;;;;5036975;28;20025;-72
2021/05/25 00:41:42;;;;;;;2.35;0.90;;;8.90;99.00;;;;;;5041807;28;20037;-72
2021/05/25 00:44:09;;;;;;;1.85;0.43;;;8.80;99.80;;;;;;5043003;28;20069;-77
2021/05/25 00:46:36;;;;;;;2.33;0.77;;;8.70;99.90;;;;;;5043275;28;20351;-78
2021/05/25 00:49:02;;;;;;;1.65;0.65;;;8.70;99.90;;;;;;5032378;28;20029;-71
2021/05/25 00:51:27;;;;;;;2.10;0.50;;;8.60;99.90;;;;;;5041682;28;20645;-72
2021/05/25 00:53:53;;;;;;;4.85;0.82;;;8.50;99.90;;;;;;5045631;28;20047;-72
2021/05/25 00:56:19;;;;;;;3.50;0.80;;;8.50;99.90;;;;;;5037961;28;20030;-72
2021/05/25 00:58:45;;;;;;;2.25;0.80;;;8.40;99.90;;;;;;5047875;28;20056;-72
2021/05/25 01:01:11;;;;;;;1.23;0.40;;;8.30;99.90;;;;;;5047807;28;20061;-72
2021/05/25 01:03:37;;;;;;;2.97;0.77;;;8.30;99.90;;;;;;5050309;28;20068;-73
2021/05/25 01:06:03;;;;;;;1.48;0.50;;;8.20;99.90;;;;;;5046208;28;20032;-72
2021/05/25 01:08:29;;;;;;;1.77;0.93;;;8.20;99.90;;;;;;5046537;28;20037;-72
2021/05/25 01:11:18;;;;;;;2.45;0.65;;;8.20;99.90;;;;;;5032336;28;20078;-71
2021/05/25 01:16:12;;;;;;;1.95;0.63;;;8.10;99.90;;;;;;5047354;28;20033;-72
2021/05/25 01:18:39;;;;;;;2.97;0.50;;;8.10;99.90;;;;;;5049285;28;20056;-72
2021/05/25 01:21:07;;;;;;;1.65;0.50;;;8.10;99.90;;;;;;5048260;28;20072;-71
2021/05/25 01:23:34;;;;;;;2.72;0.82;;;8.10;99.90;;;;;;5050306;28;20135;-71
2021/05/25 01:26:02;;;;;;;1.63;0.70;;;8.10;99.90;;;;;;5045217;28;20030;-72
2021/05/25 01:28:28;;;;;;;2.20;0.60;;;8.10;99.90;;;;;;5031453;28;20025;-72
2021/05/25 01:30:55;;;;;;;3.63;0.68;;;8.10;99.90;;;;;;5039816;28;20152;-72
2021/05/25 01:33:24;;;;;;;1.45;0.55;;;8.10;99.90;;;;;;5041719;28;20525;-72
2021/05/25 01:35:50;;;;;;;5.45;0.50;;;8.00;99.90;;;;;;5041702;28;20021;-72
2021/05/25 01:38:16;;;;;;;3.22;0.70;;;8.00;99.90;;;;;;5042960;28;20407;-72
2021/05/25 01:40:43;;;;;;;1.73;0.85;;;8.00;99.90;;;;;;5036430;28;20029;-74
2021/05/25 01:43:09;;;;;;;2.00;0.70;;;7.90;99.90;;;;;;5040269;28;20120;-77
2021/05/25 01:45:37;;;;;;;2.90;0.77;;;7.90;99.90;;;;;;5039555;28;20021;-72
2021/05/25 01:48:05;;;;;;;3.10;0.52;;;7.90;99.90;;;;;;5036662;28;20025;-72
2021/05/25 01:50:33;;;;;;;2.08;0.50;;;7.80;99.90;;;;;;5034606;28;20044;-74
2021/05/25 01:53:06;;;;;;;1.85;0.60;;;7.80;99.90;;;;;;5050595;28;20048;-72
2021/05/25 01:55:44;;;;;;;2.15;0.52;;;7.80;99.90;;;;;;5050661;28;20029;-76
2021/05/25 01:58:18;;;;;;;1.48;0.50;;;7.70;99.90;;;;;;5048775;28;20080;-78
2021/05/25 02:00:46;;;;;;;3.28;0.47;;;7.80;99.90;;;;;;5054132;28;20032;-74
2021/05/25 02:03:14;;;;;;;3.10;0.80;;;7.80;99.90;;;;;;5049004;28;20099;-73
2021/05/25 02:05:40;;;;;;;2.50;0.80;;;7.70;99.90;;;;;;5042530;28;20051;-73
2021/05/25 02:08:07;;;;;;;2.78;0.50;;;7.70;99.90;;;;;;5034619;28;20025;-72
2021/05/25 02:10:41;;;;;;;2.97;0.73;;;7.70;99.90;;;;;;5042729;28;20036;-72
2021/05/25 02:13:10;;;;;;;3.40;0.90;;;7.70;99.90;;;;;;5042667;28;20123;-76
2021/05/25 02:15:37;;;;;;;2.40;0.57;;;7.70;99.90;;;;;;5046633;28;20029;-72
2021/05/25 02:18:15;;;;;;;1.73;0.60;;;7.70;99.90;;;;;;5052199;28;20133;-72
2021/05/25 02:20:44;;;;;;;3.72;0.98;;;7.70;99.90;;;;;;5048772;28;20021;-72
2021/05/25 02:23:10;;;;;;;4.68;0.70;;;7.70;99.90;;;;;;5022501;28;20385;-77
2021/05/25 02:25:35;;;;;;;3.45;0.70;;;7.70;99.90;;;;;;5048677;28;20033;-73
2021/05/25 02:28:03;;;;;;;1.85;0.75;;;7.80;99.90;;;;;;5040471;28;20110;-72
2021/05/25 02:30:29;;;;;;;4.40;0.50;;;7.80;99.90;;;;;;5034022;28;20025;-72
2021/05/25 02:32:56;;;;;;;1.67;0.47;;;7.80;99.90;;;;;;5038189;28;20025;-71
2021/05/25 02:35:22;;;;;;;2.53;0.85;;;7.80;99.90;;;;;;5044992;28;20053;-71
2021/05/25 02:37:48;;;;;;;5.95;0.80;;;7.80;99.90;;;;;;5027177;28;20048;-72
2021/05/25 02:40:14;;;;;;;2.15;0.60;;;7.80;99.90;;;;;;5051808;28;20037;-73
2021/05/25 02:42:40;;;;;;;3.25;0.90;;;7.80;99.90;;;;;;5048620;28;20512;-72
2021/05/25 02:45:07;;;;;;;2.13;0.60;;;7.80;99.90;;;;;;5034049;28;20025;-77
2021/05/25 02:47:33;;;;;;;5.20;1.13;;;7.80;99.90;;;;;;5034663;28;20214;-72
2021/05/25 02:50:06;;;;;;;2.65;0.60;;;7.90;99.30;;;;;;5026879;28;20247;-72
2021/05/25 02:52:36;;;;;;;1.48;0.45;;;7.90;99.60;;;;;;5046519;28;20120;-72
2021/05/25 02:55:04;;;;;;;9.30;1.08;;;7.90;98.70;;;;;;5036845;28;20071;-72
2021/05/25 02:57:30;;;;;;;3.60;0.68;;;7.90;98.20;;;;;;5020839;28;20137;-72
2021/05/25 02:59:56;;;;;;;3.10;0.65;;;8.00;97.50;;;;;;5034370;28;20167;-73
2021/05/25 03:02:21;;;;;;;1.15;0.40;;;8.00;97.70;;;;;;5037506;28;20061;-72
2021/05/25 03:04:47;;;;;;;1.55;0.45;;;8.00;96.90;;;;;;5031983;28;20030;-72
2021/05/25 03:07:13;;;;;;;2.40;0.60;;;8.00;96.90;;;;;;5041096;28;20036;-77
2021/05/25 03:09:38;;;;;;;2.83;0.50;;;8.00;96.60;;;;;;5033948;28;20366;-75
2021/05/25 03:12:04;;;;;;;3.03;0.50;;;8.00;96.30;;;;;;5042559;28;20494;-72
2021/05/25 03:14:31;;;;;;;4.43;0.70;;;8.00;96.30;;;;;;5051408;28;20029;-73
2021/05/25 03:16:57;;;;;;;1.92;0.60;;;8.00;96.00;;;;;;5043018;28;20028;-73
2021/05/25 03:19:22;;;;;;;2.78;0.75;;;8.00;95.90;;;;;;5032554;28;20029;-72
2021/05/25 03:21:48;;;;;;;1.27;0.60;;;7.90;96.20;;;;;;5043249;28;20029;-72
2021/05/25 03:24:16;;;;;;;2.22;0.60;;;8.00;96.30;;;;;;5033127;28;20041;-77
2021/05/25 03:26:42;;;;;;;2.13;0.50;;;7.90;96.50;;;;;;5044167;28;20032;-72
2021/05/25 03:29:07;;;;;;;3.40;0.73;;;7.80;97.00;;;;;;5051626;28;20382;-76
2021/05/25 03:31:34;;;;;;;3.22;0.75;;;7.80;98.00;;;;;;5037396;28;20832;-72
2021/05/25 03:33:59;;;;;;;2.70;0.63;;;7.80;96.90;;;;;;5042854;28;20036;-73
2021/05/25 03:36:25;;;;;;;2.33;0.60;;;7.80;96.90;;;;;;5019839;28;20437;-72
2021/05/25 03:38:50;;;;;;;3.30;0.70;;;7.80;97.20;;;;;;5039982;28;20374;-72
2021/05/25 03:41:16;;;;;;;3.10;0.50;;;7.70;97.30;;;;;;5038475;28;20467;-72
2021/05/25 03:43:42;;;;;;;4.40;0.52;;;7.70;97.40;;;;;;5040917;28;20055;-73
2021/05/25 03:46:07;;;;;;;2.92;0.82;;;7.70;97.70;;;;;;5041247;28;20094;-72
2021/05/25 03:48:33;;;;;;;1.55;0.32;;;7.80;97.40;;;;;;5035722;28;20092;-72
2021/05/25 03:50:59;;;;;;;1.55;0.50;;;7.80;97.50;;;;;;5052034;28;20035;-72
2021/05/25 03:53:26;;;;;;;1.73;0.50;;;7.80;97.70;;;;;;5045500;28;20044;-73
2021/05/25 03:55:54;;;;;;;1.88;0.50;;;7.90;97.60;;;;;;5038588;28;20509;-73
2021/05/25 04:01:04;;;;;;;1.73;0.60;;;7.90;97.40;;;;;;5033852;28;20036;-72
2021/05/25 04:03:30;;;;;;;2.95;0.68;;;7.90;97.60;;;;;;5038515;28;20029;-72
2021/05/25 04:05:56;;;;;;;2.33;0.70;;;7.90;97.10;;;;;;5034122;28;20029;-73
2021/05/25 04:08:22;;;;;;;1.98;0.52;;;8.00;96.80;;;;;;5048516;28;20050;-73
2021/05/25 04:10:48;;;;;;;1.52;0.50;;;8.10;94.70;;;;;;5022679;28;20034;-73
2021/05/25 04:13:15;;;;;;;1.35;0.65;;;8.10;94.60;;;;;;5036550;28;20374;-78
2021/05/25 04:15:51;;;;;;;3.63;0.50;;;8.20;93.50;;;;;;5020389;28;20059;-74
2021/05/25 04:18:16;;;;;;;2.97;0.50;;;8.30;93.20;;;;;;5047912;28;20148;-77
2021/05/25 04:20:42;;;;;;;1.65;0.55;;;8.40;93.00;;;;;;5044424;28;20183;-74
2021/05/25 04:23:08;;;;;;;1.65;0.50;;;8.40;92.80;;;;;;5044103;28;20041;-71
2021/05/25 04:25:34;;;;;;;2.92;0.60;;;8.50;92.50;;;;;;5047195;28;20017;-73
2021/05/25 04:28:01;;;;;;;1.92;0.40;;;8.50;92.40;;;;;;5047672;28;20025;-72
2021/05/25 04:30:29;;;;;;;1.85;0.30;;;8.50;92.40;;;;;;5041063;28;20528;-73
2021/05/25 04:32:55;;;;;;;1.80;0.52;;;8.60;92.30;;;;;;5043538;28;20061;-73
2021/05/25 04:35:21;;;;;;;1.10;0.40;;;8.70;92.30;;;;;;5033105;28;20084;-73
2021/05/25 04:37:47;;;;;;;1.48;0.40;;;8.70;92.20;;;;;;5046862;28;20471;-73
2021/05/25 04:40:13;;;;;;;1.95;0.40;;;8.80;91.40;;;;;;5046025;28;20385;-76
2021/05/25 04:42:39;;;;;;;3.15;0.55;;;8.70;91.50;;;;;;5047042;28;20041;-73
2021/05/25 04:45:07;;;;;;;1.50;0.40;;;8.80;91.50;;;;;;5043081;28;20033;-73
2021/05/25 04:47:32;;;;;;;1.75;0.43;;;8.70;91.70;;;;;;5041460;28;20029;-74
2021/05/25 04:49:58;;;;;;;2.03;0.30;;;8.70;92.20;;;;;;5050717;28;20032;-73
2021/05/25 04:52:24;;;;;;;0.75;0.30;;;8.60;93.60;;;;;;5048694;28;20782;-73
2021/05/25 04:54:50;;;;;;;3.03;0.40;;;8.70;92.90;;;;;;5039450;28;20053;-72
2021/05/25 04:57:15;;;;;;;0.82;0.30;;;8.80;90.90;;;;;;5050352;28;20126;-79
2021/05/25 04:59:41;;;;;;;1.58;0.40;;;8.80;91.50;;;;;;5041218;28;20143;-72
2021/05/25 05:02:06;;;;;;;1.10;0.30;;;8.90;92.60;;;;;;5038532;28;20060;-74
2021/05/25 05:04:32;;;;;;;0.88;0.32;;;9.00;89.90;;;;;;5032162;28;20427;-72
2021/05/25 05:06:59;;;;;;;0.73;0.28;;;9.10;89.10;;;;;;5036884;28;20029;-73
2021/05/25 05:09:24;;;;;;;0.82;0.20;;;9.10;87.80;;;;;;5038978;28;20549;-74
2021/05/25 05:11:50;;;;;;;1.77;0.73;;;9.10;88.10;;;;;;5037071;28;20037;-73
2021/05/25 05:14:16;;;;;;;1.48;0.50;;;9.00;88.70;;;;;;5042051;28;20055;-77
2021/05/25 05:16:41;;;;;;;2.00;0.50;;;9.10;87.50;;;;;;5049700;28;20029;-73
2021/05/25 05:19:07;;;;;;;1.20;0.30;;;9.10;87.00;;;;;;5050878;28;20143;-73
2021/05/25 05:21:32;;;;;;;1.35;0.25;;;9.20;87.30;;;;;;5017631;28;20109;-72
2021/05/25 05:23:58;;;;;;;2.45;0.40;;;9.20;86.10;;;;;;5034306;28;20129;-72
2021/05/25 05:26:24;;;;;;;2.63;0.40;;;9.30;85.90;;;;;;5041920;28;20036;-72
2021/05/25 05:28:49;;;;;;;0.95;0.40;;;9.40;85.20;;;;;;5039563;28;20063;-73
2021/05/25 05:31:15;;;;;;;1.85;0.47;;;9.50;83.10;;;;;;5042872;28;20477;-76
2021/05/25 05:33:41;;;;;;;2.75;0.50;;;9.60;82.80;;;;;;5033323;28;20033;-73
2021/05/25 05:36:08;;;;;;;1.52;0.40;;;9.70;82.60;;;;;;5043866;28;20394;-73
2021/05/25 05:38:34;;;;;;;0.57;0.28;;;9.70;82.70;;;;;;5048356;28;20426;-73
2021/05/25 05:41:04;;;;;;;1.00;0.47;;;9.80;82.00;;;;;;5026829;28;20063;-72
2021/05/25 05:43:32;;;;;;;2.33;0.50;;;9.80;81.50;;;;;;5040613;28;20468;-72
2021/05/25 05:45:59;;;;;;;2.35;0.50;;;10.00;79.80;;;;;;5038071;28;20063;-73
2021/05/25 05:48:28;;;;;;;0.40;0.30;;;10.10;79.70;;;;;;5035675;28;20104;-77
2021/05/25 05:50:54;;;;;;;1.40;0.20;;;10.20;77.80;;;;;;5023530;28;20112;-75
2021/05/25 05:53:21;;;;;;;1.85;0.70;;;10.10;77.40;;;;;;5035350;28;20390;-77
2021/05/25 05:55:47;;;;;;;2.40;0.30;;;10.10;77.50;;;;;;5036622;28;20120;-75
2021/05/25 05:58:14;;;;;;;2.30;0.30;;;10.10;77.80;;;;;;5039070;28;20131;-74
2021/05/25 06:00:41;;;;;;;2.05;0.47;;;10.20;77.60;;;;;;5041961;28;20044;-73
2021/05/25 06:03:11;;;;;;;0.95;0.40;;;10.30;76.40;;;;;;5038886;28;20037;-75
2021/05/25 06:05:37;;;;;;;4.15;0.50;;;10.50;75.80;;;;;;5042547;28;20025;-72
2021/05/25 06:08:04;;;;;;;0.93;0.25;;;10.80;73.70;;;;;;5041563;28;20048;-76
2021/05/25 06:10:31;;;;;;;3.83;0.63;;;10.80;73.00;;;;;;5047968;28;20017;-78
2021/05/25 06:12:57;;;;;;;3.05;0.45;;;10.70;72.30;;;;;;5039688;28;20029;-71
2021/05/25 06:15:24;;;;;;;1.75;0.40;;;10.70;71.30;;;;;;5053393;28;20029;-72
2021/05/25 06:17:50;;;;;;;2.75;1.33;;;10.70;72.30;;;;;;5039865;28;20104;-72
2021/05/25 06:20:16;;;;;;;4.07;1.10;;;10.80;72.30;;;;;;5043316;28;20086;-72
2021/05/25 06:22:41;;;;;;;0.95;0.40;;;10.90;71.40;;;;;;5038401;28;20562;-72
2021/05/25 06:25:08;;;;;;;2.55;0.45;;;10.80;71.40;;;;;;5038115;28;20173;-73
2021/05/25 06:27:34;;;;;;;1.23;0.52;;;10.70;71.50;;;;;;5031212;28;20025;-74
2021/05/25 06:30:00;;;;;;;1.83;0.50;;;10.80;71.10;;;;;;5043824;28;20037;-73
2021/05/25 06:32:26;;;;;;;2.50;0.30;;;10.80;70.30;;;;;;5051251;28;20036;-74
2021/05/25 06:34:51;;;;;;;2.90;0.45;;;10.80;70.20;;;;;;5045587;28;20068;-73
2021/05/25 06:37:17;;;;;;;0.75;0.35;;;10.80;69.10;;;;;;5040117;28;20045;-74
2021/05/25 06:39:43;;;;;;;1.63;0.50;;;10.80;69.30;;;;;;5043887;28;20083;-75
2021/05/25 06:42:11;;;;;;;2.75;0.50;;;10.80;69.70;;;;;;5060481;28;20041;-77
2021/05/25 06:44:37;;;;;;;3.88;1.73;;;10.90;69.90;;;;;;5051545;28;20036;-74
2021/05/25 06:47:02;;;;;;;7.63;1.83;;;11.00;69.50;;;;;;5052569;28;20504;-73
2021/05/25 06:49:28;;;;;;;3.55;0.95;;;11.10;69.70;;;;;;5045476;28;20033;-73
2021/05/25 06:51:54;;;;;;;1.50;0.47;;;11.20;69.10;;;;;;5047420;28;20027;-73
2021/05/25 06:54:20;;;;;;;1.33;0.70;;;11.30;68.30;;;;;;5044418;28;20492;-74
2021/05/25 06:56:45;;;;;;;2.30;0.40;;;11.40;68.40;;;;;;5034386;28;20045;-73
2021/05/25 06:59:11;;;;;;;3.70;0.80;;;11.60;67.30;;;;;;5031787;28;20505;-73
2021/05/25 07:01:37;;;;;;;1.63;0.57;;;11.80;66.20;;;;;;5040503;28;20036;-73
2021/05/25 07:04:03;;;;;;;2.40;0.40;;;12.00;65.50;;;;;;5034575;28;20029;-74
2021/05/25 07:06:29;;;;;;;2.63;0.55;;;12.00;65.50;;;;;;5047305;28;20035;-74
2021/05/25 07:08:54;;;;;;;2.83;0.38;;;12.00;65.30;;;;;;5048044;28;20032;-72
2021/05/25 07:11:21;;;;;;;2.05;0.88;;;11.90;64.90;;;;;;5046785;28;20477;-82
2021/05/25 07:13:47;;;;;;;1.85;0.55;;;11.90;65.50;;;;;;5042075;28;20025;-76
2021/05/25 07:16:13;;;;;;;2.90;0.57;;;11.70;65.70;;;;;;5040810;28;20048;-72
2021/05/25 07:18:39;;;;;;;3.03;0.65;;;11.70;65.00;;;;;;5046048;28;20028;-71
2021/05/25 07:21:05;;;;;;;1.95;0.40;;;11.60;65.20;;;;;;5049229;28;20049;-76
2021/05/25 07:23:31;;;;;;;1.55;0.40;;;11.50;65.20;;;;;;5040351;28;20061;-73
2021/05/25 07:25:56;;;;;;;4.35;0.60;;;11.40;65.80;;;;;;5017802;28;20048;-74
2021/05/25 07:28:22;;;;;;;1.98;0.70;;;11.30;66.70;;;;;;5034440;28;20120;-75
2021/05/25 07:30:48;;;;;;;2.58;0.75;;;11.30;66.80;;;;;;5031280;28;20025;-74
2021/05/25 07:33:14;;;;;;;1.30;0.55;;;11.40;65.30;;;;;;5044734;28;20021;-76
2021/05/25 07:35:40;;;;;;;1.30;0.50;;;11.50;64.60;;;;;;5044586;28;20040;-70
2021/05/25 07:38:06;;;;;;;2.80;0.60;;;11.70;65.00;;;;;;5034610;28;20071;-71
2021/05/25 07:40:31;;;;;;;4.72;0.90;;;11.70;64.30;;;;;;5043840;28;20362;-71
2021/05/25 07:42:57;;;;;;;6.50;1.00;;;11.80;64.20;;;;;;5034800;28;20067;-71
2021/05/25 07:45:23;;;;;;;1.48;0.50;;;11.90;64.00;;;;;;5044886;28;20056;-76
2021/05/25 07:47:49;;;;;;;2.17;0.47;;;11.90;62.90;;;;;;5053201;28;20438;-75
2021/05/25 07:50:15;;;;;;;2.55;0.55;;;12.00;62.20;;;;;;5041633;28;20474;-75
2021/05/25 07:52:43;;;;;;;2.35;0.30;;;12.10;61.50;;;;;;5050359;28;20037;-77
2021/05/25 07:55:10;;;;;;;7.13;0.50;;;12.30;60.80;;;;;;5047814;28;20090;-71
2021/05/25 07:57:37;;;;;;;1.98;0.40;;;12.30;60.00;;;;;;5032928;28;20084;-73
2021/05/25 08:00:05;;;;;;;1.15;0.50;;;12.40;59.80;;;;;;5045725;28;20110;-73
2021/05/25 08:02:31;;;;;;;1.52;0.40;;;12.50;59.70;;;;;;5051973;28;20052;-73
2021/05/25 08:04:56;;;;;;;2.65;0.50;;;12.60;59.30;;;;;;5047871;28;20454;-74
2021/05/25 08:07:22;;;;;;;1.80;0.30;;;12.60;59.30;;;;;;5035515;28;20387;-83
2021/05/25 08:09:48;;;;;;;2.53;0.57;;;12.60;59.90;;;;;;5050369;28;20489;-77
2021/05/25 08:12:13;;;;;;;1.77;0.57;;;12.60;59.70;;;;;;5033574;28;20083;-77
2021/05/25 08:14:39;;;;;;;1.33;0.40;;;12.60;59.10;;;;;;5049308;28;20060;-77
2021/05/25 08:17:16;;;;;;;2.63;0.50;;;12.60;59.50;;;;;;5044534;28;20328;-77
2021/05/25 08:19:43;;;;;;;1.63;0.47;;;12.50;59.70;;;;;;5039201;28;20095;-77
2021/05/25 08:22:09;;;;;;;6.05;0.50;;;12.40;60.10;;;;;;5033094;28;20045;-77
2021/05/25 08:24:34;;;;;;;2.78;0.50;;;12.40;60.40;;;;;;5047343;28;20492;-76
2021/05/25 08:27:00;;;;;;;3.50;0.43;;;12.60;60.40;;;;;;5037618;28;20057;-75
2021/05/25 08:29:26;;;;;;;2.97;0.45;;;12.70;58.70;;;;;;5030853;28;20044;-75
2021/05/25 08:31:51;;;;;;;4.18;0.50;;;12.90;58.40;;;;;;5044098;28;20120;-75
2021/05/25 08:34:17;;;;;;;1.30;0.57;;;13.00;57.80;;;;;;5031402;28;20109;-76
2021/05/25 08:36:43;;;;;;;1.13;0.30;;;13.00;57.50;;;;;;5030540;28;20025;-74
2021/05/25 08:39:08;;;;;;;1.67;0.40;;;12.90;57.20;;;;;;5013588;28;20030;-77
2021/05/25 08:41:36;;;;;;;0.80;0.20;;;12.80;57.30;;;;;;5020598;28;20033;-76
2021/05/25 08:44:02;;;;;;;3.20;0.57;;;12.80;58.00;;;;;;5033563;28;20038;-75
2021/05/25 08:46:27;;;;;;;2.28;0.50;;;12.90;57.50;;;;;;5033124;28;20029;-75
2021/05/25 08:48:54;;;;;;;7.97;0.70;;;13.00;58.10;;;;;;5038243;28;20033;-75
2021/05/25 08:51:19;;;;;;;1.92;0.60;;;13.10;58.30;;;;;;5039847;28;20061;-75
2021/05/25 08:53:46;;;;;;;0.77;0.45;;;13.20;58.20;;;;;;5046626;28;20167;-75
2021/05/25 08:56:11;;;;;;;3.47;0.40;;;13.30;57.70;;;;;;5049036;28;20029;-74
2021/05/25 08:58:37;;;;;;;4.25;1.00;;;13.60;56.10;;;;;;5019424;28;20056;-75
2021/05/25 09:01:03;;;;;;;4.45;1.10;;;13.80;55.40;;;;;;5044395;28;20115;-75
2021/05/25 09:03:32;;;;;;;1.73;0.55;;;13.70;56.10;;;;;;5042440;28;20047;-76
2021/05/25 09:06:06;;;;;;;2.00;0.52;;;13.80;55.80;;;;;;5020853;28;20078;-76
2021/05/25 09:08:33;;;;;;;1.95;0.50;;;14.00;55.40;;;;;;5040681;28;20371;-74
2021/05/25 09:11:09;;;;;;;1.20;0.30;;;14.10;56.00;;;;;;5054588;28;20056;-75
2021/05/25 09:13:35;;;;;;;2.35;0.50;;;14.30;55.10;;;;;;5046440;28;20036;-76
2021/05/25 09:16:03;;;;;;;2.85;0.60;;;14.40;55.60;;;;;;5050514;28;20040;-75
2021/05/25 09:18:34;;;;;;;2.75;0.88;;;14.40;55.70;;;;;;5045251;28;20059;-72
2021/05/25 09:21:04;;;;;;;1.83;0.50;;;14.30;55.30;;;;;;5039916;28;20033;-76
2021/05/25 09:23:33;;;;;;;3.33;0.80;;;14.00;55.90;;;;;;5044437;28;20029;-75
2021/05/25 09:26:09;;;;;;;2.80;0.60;;;14.00;56.10;;;;;;5049650;28;20099;-75
2021/05/25 09:28:55;;;;;;;4.80;1.05;;;13.90;55.20;;;;;;5034680;28;20026;-75
2021/05/25 09:31:37;;;;;;;3.95;0.70;;;13.80;56.50;;;;;;5043694;28;20029;-75
2021/05/25 09:34:20;;;;;;;1.77;0.50;;;13.60;57.10;;;;;;5049825;28;20039;-75
2021/05/25 09:37:00;;;;;;;3.75;0.40;;;13.50;58.50;;;;;;5041192;28;20021;-77
2021/05/25 09:39:27;;;;;;;4.15;0.40;;;13.40;57.80;;;;;;5055290;28;20013;-72
2021/05/25 09:42:00;;;;;;;4.30;0.60;;;13.30;60.80;;;;;;5064052;28;20033;-77
2021/05/25 09:44:27;;;;;;;6.80;0.57;;;13.40;60.40;;;;;;5027866;28;20029;-71
2021/05/25 09:46:53;;;;;;;3.35;0.50;;;13.40;58.60;;;;;;5048657;28;20039;-75
2021/05/25 09:49:22;;;;;;;4.97;0.65;;;13.30;58.00;;;;;;5036813;28;20034;-75
2021/05/25 09:51:47;;;;;;;2.95;0.60;;;13.20;58.90;;;;;;5012386;28;20080;-76
2021/05/25 09:54:22;;;;;;;2.35;0.73;;;13.00;60.50;;;;;;5047024;28;20462;-74
2021/05/25 09:57:03;;;;;;;2.60;0.63;;;13.00;62.30;;;;;;5044761;28;20029;-75
2021/05/25 09:59:38;;;;;;;2.92;1.05;;;12.90;63.10;;;;;;5031209;28;20042;-72
2021/05/25 10:02:17;;;;;;;2.45;0.75;;;12.80;62.00;;;;;;5036344;28;20490;-77
2021/05/25 10:04:58;;;;;;;1.77;0.50;;;12.90;61.90;;;;;;5044814;28;20017;-76
2021/05/25 10:07:26;;;;;;;5.03;0.75;;;13.20;59.60;;;;;;5035055;28;20033;-77
2021/05/25 10:09:57;;;;;;;1.05;0.63;;;13.70;57.40;;;;;;5045643;28;20047;-77
2021/05/25 10:12:25;;;;;;;2.28;0.73;;;14.10;55.50;;;;;;5048054;28;20033;-76
2021/05/25 10:14:51;;;;;;;3.40;0.80;;;14.40;55.00;;;;;;5053695;28;20040;-76
2021/05/25 10:20:07;;;;;;;7.82;0.63;;;15.10;52.60;;;;;;5036116;28;20037;-75
2021/05/25 10:22:35;;;;;;;2.05;0.60;;;15.10;51.00;;;;;;5034205;28;20449;-75
2021/05/25 10:25:04;;;;;;;1.48;0.70;;;14.90;50.90;;;;;;5037514;28;20063;-75
2021/05/25 10:27:31;;;;;;;1.25;0.60;;;15.00;52.60;;;;;;5045649;28;20342;-72
2021/05/25 10:29:56;;;;;;;2.80;0.60;;;15.10;51.60;;;;;;5027756;28;20037;-75
2021/05/25 10:32:24;;;;;;;1.52;0.50;;;15.10;51.00;;;;;;5053451;28;20382;-75
2021/05/25 10:34:52;;;;;;;2.67;0.73;;;15.10;51.40;;;;;;5041004;28;20110;-75
2021/05/25 10:37:19;;;;;;;2.10;0.70;;;14.90;50.70;;;;;;5067983;28;20100;-73
2021/05/25 10:39:50;;;;;;;2.25;1.05;;;14.60;50.50;;;;;;5067539;28;20024;-75
2021/05/25 10:42:19;;;;;;;3.97;0.75;;;14.30;51.60;;;;;;5045445;28;20033;-78
2021/05/25 10:44:48;;;;;;;4.43;0.70;;;14.00;52.20;;;;;;5037142;28;20429;-77
2021/05/25 10:47:27;;;;;;;4.28;0.77;;;13.90;53.10;;;;;;5040119;28;20054;-76
2021/05/25 10:52:56;;;;;;;3.13;0.50;;;14.00;53.30;;;;;;5047769;28;20492;-76
2021/05/25 10:55:35;;;;;;;2.92;0.77;;;13.90;55.60;;;;;;5044857;28;20377;-76
2021/05/25 10:58:29;;;;;;;3.97;0.90;;;13.70;55.50;;;;;;5046787;28;20073;-74
2021/05/25 11:00:55;;;;;;;2.28;0.57;;;13.60;55.40;;;;;;5047059;28;20029;-76
2021/05/25 11:03:21;;;;;;;4.43;0.75;;;13.50;57.40;;;;;;5049467;28;20112;-75
2021/05/25 11:05:57;;;;;;;1.98;0.70;;;13.50;57.80;;;;;;5038621;28;20132;-76
2021/05/25 11:08:26;;;;;;;2.83;0.63;;;13.50;59.00;;;;;;5042459;28;20025;-76
2021/05/25 11:11:08;;;;;;;3.13;0.85;;;13.50;59.70;;;;;;5041434;28;20025;-77
2021/05/25 11:13:43;;;;;;;3.13;0.70;;;13.60;60.30;;;;;;5046142;28;20029;-76
2021/05/25 11:16:19;;;;;;;1.85;0.68;;;13.40;60.10;;;;;;5032149;28;20393;-77
2021/05/25 11:18:59;;;;;;;4.00;0.82;;;13.20;60.90;;;;;;5046187;28;20466;-76
2021/05/25 11:21:40;;;;;;;4.65;1.38;;;13.00;61.70;;;;;;5050181;28;20087;-76
2021/05/25 11:24:27;;;;;;;8.35;1.25;;;12.70;65.90;;;;;;5050738;28;20044;-78
2021/05/25 11:27:00;;;;;;;5.60;1.10;;;12.50;74.00;;;;;;5017373;28;20025;-77
2021/05/25 11:29:26;;;;;;;3.03;0.88;;;11.70;80.50;;;;;;5040761;28;20479;-76
2021/05/25 11:31:53;;;;;;;3.25;1.02;;;11.00;85.80;;;;;;5030160;28;20021;-77
2021/05/25 11:34:22;;;;;;;2.50;0.80;;;10.50;97.20;;;;;;5042107;28;20417;-77
2021/05/25 11:37:09;;;;;;;4.68;0.88;;;10.20;96.30;;;;;;5036306;28;20021;-78
2021/05/25 11:39:35;;;;;;;1.73;0.50;;;10.30;99.90;;;;;;5044304;28;20032;-76
2021/05/25 11:42:09;;;;;;;3.72;0.70;;;10.60;99.90;;;;;;5019902;28;20034;-76
2021/05/25 11:44:44;;;;;;;2.53;0.80;;;11.20;93.40;;;;;;5033845;28;20111;-75
2021/05/25 11:47:10;;;;;;;2.45;0.57;;;11.60;92.30;;;;;;5034006;28;20033;-77
2021/05/25 11:49:39;;;;;;;2.10;0.65;;;11.90;91.00;;;;;;5038674;28;20021;-75
2021/05/25 11:52:21;;;;;;;3.10;0.50;;;11.90;84.80;;;;;;5015664;28;20033;-76
2021/05/25 11:54:47;;;;;;;4.53;0.60;;;11.70;82.20;;;;;;5046365;28;20029;-75
2021/05/25 11:57:24;;;;;;;0.45;0.32;;;11.80;75.90;;;;;;5027824;28;20588;-76
2021/05/25 11:59:50;;;;;;;4.20;0.63;;;12.10;75.10;;;;;;5022422;28;20029;-75
2021/05/25 12:02:30;;;;;;;1.63;0.50;;;12.30;75.10;;;;;;5048255;28;20044;-74
2021/05/25 12:05:08;;;;;;;3.50;0.88;;;12.90;67.50;;;;;;5049559;28;20036;-76
2021/05/25 12:07:36;;;;;;;9.40;1.65;;;13.20;73.60;;;;;;5039277;28;20029;-72
2021/05/25 12:10:10;;;;;;;3.70;0.60;;;13.60;65.30;;;;;;5039735;28;20033;-76
2021/05/25 12:12:41;;;;;;;3.65;0.75;;;14.00;62.10;;;;;;5041911;28;20104;-76
2021/05/25 12:15:26;;;;;;;1.33;0.73;;;14.30;61.60;;;;;;5047169;28;20458;-76
2021/05/25 12:17:54;;;;;;;2.28;0.90;;;14.50;60.50;;;;;;5043252;28;20110;-76
2021/05/25 12:20:22;;;;;;;2.13;0.70;;;14.90;60.10;;;;;;5032834;28;20033;-77
2021/05/25 12:22:51;;;;;;;5.32;0.80;;;15.40;57.10;;;;;;5045970;28;20029;-78
2021/05/25 12:25:30;;;;;;;3.55;0.77;;;15.60;51.50;;;;;;5049877;28;20021;-76
2021/05/25 12:28:04;;;;;;;3.70;0.63;;;15.60;51.90;;;;;;5032697;28;20147;-76
2021/05/25 12:30:31;;;;;;;1.80;0.80;;;15.90;53.30;;;;;;5044061;28;20040;-76
2021/05/25 12:32:57;;;;;;;2.70;0.77;;;16.30;51.60;;;;;;5045011;28;20167;-76
2021/05/25 12:35:25;;;;;;;1.70;0.43;;;16.50;49.20;;;;;;5028951;28;20116;-76
2021/05/25 12:38:10;;;;;;;3.60;0.80;;;16.50;49.40;;;;;;5031780;28;20108;-76
2021/05/25 12:40:38;;;;;;;2.75;0.80;;;16.70;50.10;;;;;;5049588;28;20072;-75
2021/05/25 12:43:24;;;;;;;2.65;1.02;;;17.10;50.90;;;;;;5034942;28;20289;-77
2021/05/25 12:45:53;;;;;;;3.38;0.50;;;17.60;47.30;;;;;;5043109;28;20378;-78
2021/05/25 12:48:31;;;;;;;4.25;0.90;;;17.50;44.50;;;;;;5043369;28;20086;-77
2021/05/25 12:50:57;;;;;;;1.35;0.50;;;17.50;46.80;;;;;;5043600;28;20017;-77
2021/05/25 12:53:23;;;;;;;3.25;0.88;;;17.50;46.60;;;;;;5033689;28;20036;-77
2021/05/25 12:55:51;;;;;;;2.58;0.80;;;17.70;45.90;;;;;;5044173;28;20500;-76
2021/05/25 12:58:56;;;;;;;2.72;0.70;;;17.90;45.90;;;;;;5051294;28;20128;-77
2021/05/25 13:01:32;;;;;;;3.20;0.95;;;18.10;45.20;;;;;;4948032;29;20038;-77
2021/05/25 13:04:01;;;;;;;2.30;0.70;;;18.10;45.50;;;;;;5034340;28;20508;-77
2021/05/25 13:06:33;;;;;;;4.53;1.15;;;18.30;45.80;;;;;;5050097;28;20063;-77